Saturday, November 01, 2014
04:50 UTC
  |  Log In   |  Register Free
Airport Search:

Oroville Municipal Airport
(KOVE)

Oroville Municipal Airport Diagram
No Airport Diagram Available

FAA data valid effective September 18, 2014 - November 13, 2014 (unless otherwise noted).

 
 
 
 
 
 
 
 
 
 
 
 
 
 

Current Aviation Weather for Oroville Municipal Airport (KOVE)

The most recent METAR observation for KOVE was updated at: 0427
METAR Summary (Translated METAR)
KOVE
010353Z AUTO 00000KT 10SM OVC004 13/12 A2974 RMK AO2 RAE0259 SLP073 P0000 T01330122
KCIC
010355Z AUTO 33006KT 10SM BKN011 BKN022 OVC070 12/12 A2974 RMK AO1
(21.5 nm NW from KOVE)
KBAB
010408Z AUTO 15002KT 10SM BKN010 OVC024 14/14 A2972 RMK AO2 CIG 008V023 $
(22.8 nm SE from KOVE)
TAF Summary (Translated TAF)
KBAB
(22.8 nm SE from KOVE)
0103/0209 VRB06KT 9999 SHRA VCTS SCT025CB OVC050 QNH2973INS TEMPO 0108/0109 18009KT 8000 -RA BKN025 OVC050 BECMG 0120/0121 18009KT 9000 SHRA VCTS BKN030CB OVC100 QNH2990INS TX19/0121Z TN08/0111Z
  Airport Weather Conditions for KOVE

 Current Weather at OVE
56° F
Overcast
North winds at 0.0 mph
OVE NOAA Radar

Pressure: 29.74 in
Humidity: 93%
Wind: Calm
Dew Point: 54.0°F
Visibility: 10.00 mi


Airport Weather Forecast for KOVE

Translated METAR and TAF for KOVE
Translated METAR for KOVE (0445 UTC 01 November 2014)
found at http://aviationweather.gov/adds/metars/
 
METAR text: KOVE 010353Z AUTO 00000KT 10SM OVC004 13/12 A2974 RMK AO2 RAE0259 SLP073 P0000 T01330122
Conditions at: KOVE (OROVILLE , CA, US) observed 0353 UTC 01 November 2014
Temperature: 13.3°C (56°F)
Dewpoint: 12.2°C (54°F) [RH = 93%]
Pressure (altimeter): 29.74 inches Hg (1007.2 mb)
[Sea-level pressure: 1007.3 mb]
Winds: calm
Visibility: 10 or more miles (16+ km)
Ceiling: 400 feet AGL
Clouds: overcast cloud deck at 400 feet AGL
Weather: automated observation with no human augmentation;
there may or may not be significant weather present at this time
Translated TAF for KOVE

There is no translated TAF available for this airport

Find All Airport Services Find A Hotel Find A Rental Car Find A Golf Course Find A Restaurant $100 Hamburger



FBO's on the Field
FBO Company Facility Photos Services Transportation Aviation Fuel Prices: Prices include tax
Catering Weather Repair Courtesy Rental Type 100LL JetA JetA+ MOGAS 8087
 
Oroville Municipal Airport

This FBO has not yet been rated
FS:Epic
Last Updated: Oct-20
Login to update fuel prices
SS:
Contact Oroville Municipal AirportMore FBO Information
 
Add another FBO Facility Photos Catering Weather Repair Courtesy Rental Type 100LL JetA JetA+ MOGAS 8087
Services Transportation Aviation Fuel Prices: Prices include tax


model-print
model-print
model-print
model-print